Jijona, Spain
Current Conditions -  °F | °C
As of 11:00 PM on Sunday 21 Dec 2014 (Local Time) from LEAL Reporting Station
Broken Clouds Broken Clouds  
Wind Chill: 52°   Ceiling: 2500
Heat Index: 52°   Visibility: 6mi
Dew Point: 50°   Wind: 0mph
Humidity: 94%   Direction: NA
Pressure: 30.5"   Gusts: NA
Location:  38.54°N, 0.5°W
Report Text: LEAL 212200Z 00000KT 9000 FEW016 BKN025 11/10 Q1033 NOSIG
Loading
Personal Weather Stations






























Interactive Weather Map New forecast layout! Learn more

10-Day Weather Forecast

Advertisements
Track Severe Weather on mobile